sensor_id;sensor_type;location;lat;lon;timestamp;pressure;altitude;pressure_sealevel;temperature;humidity
75692;BME280;64307;52.508;6.090;2023-05-10T00:00:40;100834.63;;;13.21;100.00
75692;BME280;64307;52.508;6.090;2023-05-10T00:03:06;100834.63;;;13.21;100.00
75692;BME280;64307;52.508;6.090;2023-05-10T00:05:32;100827.41;;;13.20;100.00
75692;BME280;64307;52.508;6.090;2023-05-10T00:07:57;100834.25;;;13.19;100.00
75692;BME280;64307;52.508;6.090;2023-05-10T00:10:22;100831.81;;;13.21;100.00
75692;BME280;64307;52.508;6.090;2023-05-10T00:12:48;100832.91;;;13.31;100.00
75692;BME280;64307;52.508;6.090;2023-05-10T00:15:13;100817.00;;;13.24;100.00
75692;BME280;64307;52.508;6.090;2023-05-10T00:17:38;100822.56;;;13.28;100.00
75692;BME280;64307;52.508;6.090;2023-05-10T00:20:05;100822.56;;;13.28;100.00
75692;BME280;64307;52.508;6.090;2023-05-10T00:22:31;100820.16;;;13.26;100.00
75692;BME280;64307;52.508;6.090;2023-05-10T00:24:57;100815.47;;;13.16;100.00
75692;BME280;64307;52.508;6.090;2023-05-10T00:27:22;100815.78;;;13.25;100.00
75692;BME280;64307;52.508;6.090;2023-05-10T00:29:48;100814.56;;;13.26;100.00
75692;BME280;64307;52.508;6.090;2023-05-10T00:32:13;100821.78;;;13.27;100.00
75692;BME280;64307;52.508;6.090;2023-05-10T00:34:39;100821.38;;;13.25;100.00
75692;BME280;64307;52.508;6.090;2023-05-10T00:37:04;100815.38;;;13.27;100.00
75692;BME280;64307;52.508;6.090;2023-05-10T00:39:30;100819.88;;;13.17;100.00
75692;BME280;64307;52.508;6.090;2023-05-10T00:41:55;100815.84;;;13.22;100.00
75692;BME280;64307;52.508;6.090;2023-05-10T00:44:21;100808.69;;;13.17;100.00
75692;BME280;64307;52.508;6.090;2023-05-10T00:46:48;100815.09;;;13.18;100.00
75692;BME280;64307;52.508;6.090;2023-05-10T00:49:13;100813.44;;;13.20;100.00
75692;BME280;64307;52.508;6.090;2023-05-10T00:51:39;100813.00;;;13.25;100.00
75692;BME280;64307;52.508;6.090;2023-05-10T00:54:04;100810.59;;;13.27;100.00
75692;BME280;64307;52.508;6.090;2023-05-10T00:56:30;100798.31;;;13.18;100.00
75692;BME280;64307;52.508;6.090;2023-05-10T00:58:56;100810.25;;;13.18;100.00
75692;BME280;64307;52.508;6.090;2023-05-10T01:01:21;100811.06;;;13.19;100.00
75692;BME280;64307;52.508;6.090;2023-05-10T01:03:46;100816.22;;;13.24;100.00
75692;BME280;64307;52.508;6.090;2023-05-10T01:06:12;100808.97;;;13.26;100.00
75692;BME280;64307;52.508;6.090;2023-05-10T01:08:38;100807.03;;;13.23;100.00
75692;BME280;64307;52.508;6.090;2023-05-10T01:11:04;100807.84;;;13.24;100.00
75692;BME280;64307;52.508;6.090;2023-05-10T01:13:33;100813.06;;;13.18;100.00
75692;BME280;64307;52.508;6.090;2023-05-10T01:15:59;100803.06;;;13.21;100.00
75692;BME280;64307;52.508;6.090;2023-05-10T01:18:27;100811.91;;;13.16;100.00
75692;BME280;64307;52.508;6.090;2023-05-10T01:21:13;100809.50;;;13.18;100.00
75692;BME280;64307;52.508;6.090;2023-05-10T01:24:05;100805.97;;;13.10;100.00
75692;BME280;64307;52.508;6.090;2023-05-10T01:29:15;100813.16;;;13.11;100.00
75692;BME280;64307;52.508;6.090;2023-05-10T01:34:21;100809.13;;;13.12;100.00
75692;BME280;64307;52.508;6.090;2023-05-10T01:37:02;100811.13;;;13.11;100.00
75692;BME280;64307;52.508;6.090;2023-05-10T01:39:45;100815.97;;;13.07;100.00
75692;BME280;64307;52.508;6.090;2023-05-10T01:42:17;100805.56;;;13.08;100.00
75692;BME280;64307;52.508;6.090;2023-05-10T01:44:58;100805.97;;;13.10;100.00
75692;BME280;64307;52.508;6.090;2023-05-10T01:47:42;100811.59;;;13.03;100.00
75692;BME280;64307;52.508;6.090;2023-05-10T01:50:15;100806.44;;;12.98;100.00
75692;BME280;64307;52.508;6.090;2023-05-10T01:52:42;100819.25;;;12.99;100.00
75692;BME280;64307;52.508;6.090;2023-05-10T01:55:30;100808.94;;;12.89;100.00
75692;BME280;64307;52.508;6.090;2023-05-10T01:58:09;100816.81;;;12.97;100.00
75692;BME280;64307;52.508;6.090;2023-05-10T02:00:35;100820.03;;;12.96;100.00
75692;BME280;64307;52.508;6.090;2023-05-10T02:03:05;100816.44;;;12.99;100.00
75692;BME280;64307;52.508;6.090;2023-05-10T02:05:32;100809.34;;;12.87;100.00
75692;BME280;64307;52.508;6.090;2023-05-10T02:08:01;100818.56;;;12.84;100.00
75692;BME280;64307;52.508;6.090;2023-05-10T02:10:28;100820.09;;;12.92;100.00
75692;BME280;64307;52.508;6.090;2023-05-10T02:12:55;100813.38;;;12.83;100.00
75692;BME280;64307;52.508;6.090;2023-05-10T02:15:24;100818.50;;;12.91;100.00
75692;BME280;64307;52.508;6.090;2023-05-10T02:17:52;100817.28;;;12.92;100.00
75692;BME280;64307;52.508;6.090;2023-05-10T02:20:20;100828.50;;;12.89;100.00
75692;BME280;64307;52.508;6.090;2023-05-10T02:22:47;100826.50;;;12.89;100.00
75692;BME280;64307;52.508;6.090;2023-05-10T02:25:15;100831.31;;;12.89;100.00
75692;BME280;64307;52.508;6.090;2023-05-10T02:27:42;100832.88;;;12.90;100.00
75692;BME280;64307;52.508;6.090;2023-05-10T02:30:09;100826.47;;;12.93;100.00
75692;BME280;64307;52.508;6.090;2023-05-10T02:32:36;100831.31;;;12.85;100.00
75692;BME280;64307;52.508;6.090;2023-05-10T02:35:03;100839.78;;;12.78;100.00
75692;BME280;64307;52.508;6.090;2023-05-10T02:37:29;100840.94;;;12.84;100.00
75692;BME280;64307;52.508;6.090;2023-05-10T02:39:56;100834.53;;;12.84;100.00
75692;BME280;64307;52.508;6.090;2023-05-10T02:42:26;100838.13;;;12.81;100.00
75692;BME280;64307;52.508;6.090;2023-05-10T02:44:53;100842.50;;;12.85;100.00
75692;BME280;64307;52.508;6.090;2023-05-10T02:47:19;100835.34;;;12.84;100.00
75692;BME280;64307;52.508;6.090;2023-05-10T02:49:45;100840.88;;;12.88;100.00
75692;BME280;64307;52.508;6.090;2023-05-10T02:52:15;100845.25;;;12.92;100.00
75692;BME280;64307;52.508;6.090;2023-05-10T02:54:46;100834.88;;;12.93;100.00
75692;BME280;64307;52.508;6.090;2023-05-10T02:57:28;100835.63;;;12.93;100.00
75692;BME280;64307;52.508;6.090;2023-05-10T02:59:56;100834.41;;;12.98;100.00
75692;BME280;64307;52.508;6.090;2023-05-10T03:02:22;100832.06;;;12.93;100.00
75692;BME280;64307;52.508;6.090;2023-05-10T03:04:47;100836.41;;;12.97;100.00
75692;BME280;64307;52.508;6.090;2023-05-10T03:07:13;100830.41;;;12.99;100.00
75692;BME280;64307;52.508;6.090;2023-05-10T03:09:38;100830.47;;;12.92;100.00
75692;BME280;64307;52.508;6.090;2023-05-10T03:12:11;100841.19;;;13.00;100.00
75692;BME280;64307;52.508;6.090;2023-05-10T03:17:40;100835.97;;;13.06;100.00
75692;BME280;64307;52.508;6.090;2023-05-10T03:20:12;100836.72;;;13.10;100.00
75692;BME280;64307;52.508;6.090;2023-05-10T03:22:45;100835.91;;;13.09;100.00
75692;BME280;64307;52.508;6.090;2023-05-10T03:25:12;100837.84;;;13.20;100.00
75692;BME280;64307;52.508;6.090;2023-05-10T03:27:41;100845.84;;;13.14;100.00
75692;BME280;64307;52.508;6.090;2023-05-10T03:30:10;100838.31;;;13.07;100.00
75692;BME280;64307;52.508;6.090;2023-05-10T03:32:36;100844.69;;;13.11;100.00
75692;BME280;64307;52.508;6.090;2023-05-10T03:35:09;100847.81;;;13.21;100.00
75692;BME280;64307;52.508;6.090;2023-05-10T03:37:35;100848.13;;;13.26;100.00
75692;BME280;64307;52.508;6.090;2023-05-10T03:40:01;100850.16;;;13.26;100.00
75692;BME280;64307;52.508;6.090;2023-05-10T03:42:27;100851.72;;;13.27;100.00
75692;BME280;64307;52.508;6.090;2023-05-10T03:44:52;100854.53;;;13.27;100.00
75692;BME280;64307;52.508;6.090;2023-05-10T03:47:18;100852.69;;;13.13;100.00
75692;BME280;64307;52.508;6.090;2023-05-10T03:49:44;100859.41;;;13.19;100.00
75692;BME280;64307;52.508;6.090;2023-05-10T03:52:09;100856.53;;;13.26;100.00
75692;BME280;64307;52.508;6.090;2023-05-10T03:54:35;100860.53;;;13.25;100.00
75692;BME280;64307;52.508;6.090;2023-05-10T03:57:00;100862.91;;;13.27;100.00
75692;BME280;64307;52.508;6.090;2023-05-10T03:59:26;100854.25;;;13.18;100.00
75692;BME280;64307;52.508;6.090;2023-05-10T04:01:51;100856.66;;;13.16;100.00
75692;BME280;64307;52.508;6.090;2023-05-10T04:04:16;100864.53;;;13.24;100.00
75692;BME280;64307;52.508;6.090;2023-05-10T04:06:43;100866.13;;;13.25;100.00
75692;BME280;64307;52.508;6.090;2023-05-10T04:09:09;100866.19;;;13.18;100.00
75692;BME280;64307;52.508;6.090;2023-05-10T04:11:34;100865.75;;;13.23;100.00
75692;BME280;64307;52.508;6.090;2023-05-10T04:14:01;100867.75;;;13.23;100.00
75692;BME280;64307;52.508;6.090;2023-05-10T04:16:26;100865.72;;;13.27;100.00
75692;BME280;64307;52.508;6.090;2023-05-10T04:18:53;100869.31;;;13.27;100.00
75692;BME280;64307;52.508;6.090;2023-05-10T04:21:20;100869.38;;;13.20;100.00
75692;BME280;64307;52.508;6.090;2023-05-10T04:23:45;100868.56;;;13.23;100.00
75692;BME280;64307;52.508;6.090;2023-05-10T04:26:10;100873.72;;;13.25;100.00
75692;BME280;64307;52.508;6.090;2023-05-10T04:28:36;100872.53;;;13.22;100.00
75692;BME280;64307;52.508;6.090;2023-05-10T04:31:09;100874.06;;;13.30;100.00
75692;BME280;64307;52.508;6.090;2023-05-10T04:33:35;100882.84;;;13.32;100.00
75692;BME280;64307;52.508;6.090;2023-05-10T04:36:01;100881.69;;;13.30;100.00
75692;BME280;64307;52.508;6.090;2023-05-10T04:38:27;100884.06;;;13.31;100.00
75692;BME280;64307;52.508;6.090;2023-05-10T04:40:53;100883.63;;;13.33;100.00
75692;BME280;64307;52.508;6.090;2023-05-10T04:43:18;100876.09;;;13.26;100.00
75692;BME280;64307;52.508;6.090;2023-05-10T04:45:44;100875.25;;;13.33;100.00
75692;BME280;64307;52.508;6.090;2023-05-10T04:48:09;100883.72;;;13.22;100.00
75692;BME280;64307;52.508;6.090;2023-05-10T04:50:34;100889.22;;;13.33;100.00
75692;BME280;64307;52.508;6.090;2023-05-10T04:53:00;100890.84;;;13.34;100.00
75692;BME280;64307;52.508;6.090;2023-05-10T04:55:25;100893.69;;;13.27;100.00
75692;BME280;64307;52.508;6.090;2023-05-10T04:57:52;100891.28;;;13.29;100.00
75692;BME280;64307;52.508;6.090;2023-05-10T05:00:17;100898.44;;;13.33;100.00
75692;BME280;64307;52.508;6.090;2023-05-10T05:02:43;100898.81;;;13.35;100.00
75692;BME280;64307;52.508;6.090;2023-05-10T05:05:10;100894.50;;;13.27;100.00
75692;BME280;64307;52.508;6.090;2023-05-10T05:07:37;100895.16;;;13.42;100.00
75692;BME280;64307;52.508;6.090;2023-05-10T05:10:07;100904.25;;;13.49;100.00
75692;BME280;64307;52.508;6.090;2023-05-10T05:12:32;100907.38;;;13.55;100.00
75692;BME280;64307;52.508;6.090;2023-05-10T05:14:58;100906.16;;;13.59;100.00
75692;BME280;64307;52.508;6.090;2023-05-10T05:17:23;100912.53;;;13.60;100.00
75692;BME280;64307;52.508;6.090;2023-05-10T05:19:48;100915.28;;;13.63;100.00
75692;BME280;64307;52.508;6.090;2023-05-10T05:22:14;100909.53;;;13.77;100.00
75692;BME280;64307;52.508;6.090;2023-05-10T05:24:39;100915.88;;;13.81;100.00
75692;BME280;64307;52.508;6.090;2023-05-10T05:27:04;100922.91;;;13.96;100.00
75692;BME280;64307;52.508;6.090;2023-05-10T05:29:30;100917.59;;;14.69;99.07
75692;BME280;64307;52.508;6.090;2023-05-10T05:31:56;100915.75;;;15.32;95.73
75692;BME280;64307;52.508;6.090;2023-05-10T05:34:21;100928.03;;;16.04;92.61
75692;BME280;64307;52.508;6.090;2023-05-10T05:36:47;100926.88;;;16.02;91.64
75692;BME280;64307;52.508;6.090;2023-05-10T05:39:12;100925.66;;;16.22;89.75
75692;BME280;64307;52.508;6.090;2023-05-10T05:41:38;100928.47;;;17.10;85.64
75692;BME280;64307;52.508;6.090;2023-05-10T05:44:03;100931.13;;;16.29;88.58
75692;BME280;64307;52.508;6.090;2023-05-10T05:46:28;100937.63;;;15.18;93.73
75692;BME280;64307;52.508;6.090;2023-05-10T05:48:53;100931.25;;;14.64;95.78
75692;BME280;64307;52.508;6.090;2023-05-10T05:51:19;100933.06;;;14.51;96.81
75692;BME280;64307;52.508;6.090;2023-05-10T05:53:44;100942.53;;;14.27;98.03
75692;BME280;64307;52.508;6.090;2023-05-10T05:56:09;100928.97;;;14.25;98.61
75692;BME280;64307;52.508;6.090;2023-05-10T05:58:34;100935.56;;;14.12;100.00
75692;BME280;64307;52.508;6.090;2023-05-10T06:01:00;100945.69;;;13.98;100.00
75692;BME280;64307;52.508;6.090;2023-05-10T06:03:26;100951.34;;;13.95;100.00
75692;BME280;64307;52.508;6.090;2023-05-10T06:05:51;100945.38;;;13.89;100.00
75692;BME280;64307;52.508;6.090;2023-05-10T06:08:17;100952.63;;;13.87;100.00
75692;BME280;64307;52.508;6.090;2023-05-10T06:10:42;100950.53;;;13.94;100.00
75692;BME280;64307;52.508;6.090;2023-05-10T06:13:07;100948.97;;;13.93;100.00
75692;BME280;64307;52.508;6.090;2023-05-10T06:15:32;100953.88;;;13.82;100.00
75692;BME280;64307;52.508;6.090;2023-05-10T06:17:58;100956.75;;;13.75;100.00
75692;BME280;64307;52.508;6.090;2023-05-10T06:20:23;100961.53;;;13.78;100.00
75692;BME280;64307;52.508;6.090;2023-05-10T06:22:49;100963.84;;;13.83;100.00
75692;BME280;64307;52.508;6.090;2023-05-10T06:25:14;100963.56;;;13.74;100.00
75692;BME280;64307;52.508;6.090;2023-05-10T06:27:40;100967.13;;;13.78;100.00
75692;BME280;64307;52.508;6.090;2023-05-10T06:30:05;100969.06;;;13.85;100.00
75692;BME280;64307;52.508;6.090;2023-05-10T06:32:31;100975.84;;;13.84;100.00
75692;BME280;64307;52.508;6.090;2023-05-10T06:34:56;100970.56;;;13.93;100.00
75692;BME280;64307;52.508;6.090;2023-05-10T06:37:21;100968.84;;;14.03;100.00
75692;BME280;64307;52.508;6.090;2023-05-10T06:39:47;100963.69;;;14.01;100.00
75692;BME280;64307;52.508;6.090;2023-05-10T06:42:12;100962.81;;;14.04;100.00
75692;BME280;64307;52.508;6.090;2023-05-10T06:44:37;100963.72;;;14.31;100.00
75692;BME280;64307;52.508;6.090;2023-05-10T06:47:03;100972.16;;;14.28;100.00
75692;BME280;64307;52.508;6.090;2023-05-10T06:49:28;100976.94;;;14.31;99.13
75692;BME280;64307;52.508;6.090;2023-05-10T06:51:55;100974.94;;;14.31;98.86
75692;BME280;64307;52.508;6.090;2023-05-10T06:54:20;100982.69;;;14.17;99.79
75692;BME280;64307;52.508;6.090;2023-05-10T06:56:46;100978.22;;;14.23;100.00
75692;BME280;64307;52.508;6.090;2023-05-10T06:59:11;100984.28;;;14.18;100.00
75692;BME280;64307;52.508;6.090;2023-05-10T07:01:38;100980.19;;;14.26;100.00
75692;BME280;64307;52.508;6.090;2023-05-10T07:04:03;100980.78;;;14.44;99.27
75692;BME280;64307;52.508;6.090;2023-05-10T07:06:29;100983.16;;;14.45;98.48
75692;BME280;64307;52.508;6.090;2023-05-10T07:08:54;100980.09;;;14.36;99.33
75692;BME280;64307;52.508;6.090;2023-05-10T07:11:19;100974.94;;;14.31;98.63
75692;BME280;64307;52.508;6.090;2023-05-10T07:13:45;100991.69;;;14.35;98.96
75692;BME280;64307;52.508;6.090;2023-05-10T07:16:11;100995.03;;;14.56;98.65
75692;BME280;64307;52.508;6.090;2023-05-10T07:18:36;100999.66;;;14.70;97.47
75692;BME280;64307;52.508;6.090;2023-05-10T07:21:02;100991.41;;;14.86;96.69
75692;BME280;64307;52.508;6.090;2023-05-10T07:23:28;100991.31;;;14.93;95.43
75692;BME280;64307;52.508;6.090;2023-05-10T07:25:53;100999.00;;;15.16;94.26
75692;BME280;64307;52.508;6.090;2023-05-10T07:28:19;101003.69;;;15.22;94.55
75692;BME280;64307;52.508;6.090;2023-05-10T07:30:45;101006.28;;;15.36;93.32
75692;BME280;64307;52.508;6.090;2023-05-10T07:33:12;101005.34;;;15.20;93.88
75692;BME280;64307;52.508;6.090;2023-05-10T07:35:37;101002.44;;;15.00;94.09
75692;BME280;64307;52.508;6.090;2023-05-10T07:38:02;101000.91;;;14.96;94.86
75692;BME280;64307;52.508;6.090;2023-05-10T07:40:28;101018.91;;;14.68;95.02
75692;BME280;64307;52.508;6.090;2023-05-10T07:42:54;101004.44;;;14.43;95.83
75692;BME280;64307;52.508;6.090;2023-05-10T07:45:19;101025.13;;;14.52;96.14
75692;BME280;64307;52.508;6.090;2023-05-10T07:47:44;101019.47;;;14.56;96.23
75692;BME280;64307;52.508;6.090;2023-05-10T07:50:10;101029.00;;;14.62;95.27
75692;BME280;64307;52.508;6.090;2023-05-10T07:52:35;101027.00;;;14.62;96.30
75692;BME280;64307;52.508;6.090;2023-05-10T07:55:00;101031.34;;;14.67;96.11
75692;BME280;64307;52.508;6.090;2023-05-10T07:57:26;101028.69;;;14.56;96.96
75692;BME280;64307;52.508;6.090;2023-05-10T07:59:51;101036.88;;;14.40;97.58
75692;BME280;64307;52.508;6.090;2023-05-10T08:02:16;101038.69;;;14.20;97.61
75692;BME280;64307;52.508;6.090;2023-05-10T08:04:41;101034.28;;;14.19;98.43
75692;BME280;64307;52.508;6.090;2023-05-10T08:07:07;101040.69;;;14.20;97.95
75692;BME280;64307;52.508;6.090;2023-05-10T08:09:32;101040.88;;;14.43;97.42
75692;BME280;64307;52.508;6.090;2023-05-10T08:11:58;101040.50;;;14.71;94.83
75692;BME280;64307;52.508;6.090;2023-05-10T08:14:24;101027.47;;;14.88;94.79
75692;BME280;64307;52.508;6.090;2023-05-10T08:16:49;101044.31;;;15.14;92.88
75692;BME280;64307;52.508;6.090;2023-05-10T08:19:15;101049.56;;;15.12;92.12
75692;BME280;64307;52.508;6.090;2023-05-10T08:21:44;101044.16;;;15.51;92.00
75692;BME280;64307;52.508;6.090;2023-05-10T08:24:09;101051.84;;;15.47;91.49
75692;BME280;64307;52.508;6.090;2023-05-10T08:26:34;101055.91;;;15.70;89.93
75692;BME280;64307;52.508;6.090;2023-05-10T08:29:00;101051.22;;;15.83;89.77
75692;BME280;64307;52.508;6.090;2023-05-10T08:31:25;101049.63;;;16.48;86.71
75692;BME280;64307;52.508;6.090;2023-05-10T08:33:50;101053.69;;;16.66;84.96
75692;BME280;64307;52.508;6.090;2023-05-10T08:36:17;101050.16;;;16.62;82.32
75692;BME280;64307;52.508;6.090;2023-05-10T08:38:46;101053.81;;;16.59;84.93
75692;BME280;64307;52.508;6.090;2023-05-10T08:41:13;101048.03;;;16.27;86.02
75692;BME280;64307;52.508;6.090;2023-05-10T08:43:38;101062.19;;;16.00;86.71
75692;BME280;64307;52.508;6.090;2023-05-10T08:46:07;101071.22;;;15.65;88.10
75692;BME280;64307;52.508;6.090;2023-05-10T08:48:34;101066.56;;;15.55;88.91
75692;BME280;64307;52.508;6.090;2023-05-10T08:51:00;101072.78;;;15.39;90.31
75692;BME280;64307;52.508;6.090;2023-05-10T08:53:28;101076.97;;;15.28;91.58
75692;BME280;64307;52.508;6.090;2023-05-10T08:55:56;101075.22;;;15.37;91.84
75692;BME280;64307;52.508;6.090;2023-05-10T08:58:22;101075.34;;;15.57;91.04
75692;BME280;64307;52.508;6.090;2023-05-10T09:00:49;101081.81;;;15.54;90.74
75692;BME280;64307;52.508;6.090;2023-05-10T09:03:16;101085.03;;;15.52;90.91
75692;BME280;64307;52.508;6.090;2023-05-10T09:05:41;101085.84;;;15.53;90.37
75692;BME280;64307;52.508;6.090;2023-05-10T09:08:08;101095.44;;;15.55;90.07
75692;BME280;64307;52.508;6.090;2023-05-10T09:10:33;101097.53;;;15.48;90.22
75692;BME280;64307;52.508;6.090;2023-05-10T09:12:59;101089.22;;;15.41;89.97
75692;BME280;64307;52.508;6.090;2023-05-10T09:15:25;101093.47;;;15.52;89.21
75692;BME280;64307;52.508;6.090;2023-05-10T09:17:50;101097.50;;;15.51;89.45
75692;BME280;64307;52.508;6.090;2023-05-10T09:20:16;101099.56;;;15.74;88.99
75692;BME280;64307;52.508;6.090;2023-05-10T09:22:44;101101.66;;;15.67;88.89
75692;BME280;64307;52.508;6.090;2023-05-10T09:25:11;101109.72;;;15.65;89.37
75692;BME280;64307;52.508;6.090;2023-05-10T09:27:38;101104.97;;;15.62;88.17
75692;BME280;64307;52.508;6.090;2023-05-10T09:30:04;101103.53;;;15.50;88.30
75692;BME280;64307;52.508;6.090;2023-05-10T09:35:15;101107.44;;;15.56;89.48
75692;BME280;64307;52.508;6.090;2023-05-10T09:37:41;101111.06;;;15.26;88.86
75692;BME280;64307;52.508;6.090;2023-05-10T09:40:10;101113.75;;;15.33;88.95
75692;BME280;64307;52.508;6.090;2023-05-10T09:42:36;101120.78;;;15.48;87.99
75692;BME280;64307;52.508;6.090;2023-05-10T09:45:06;101130.59;;;15.64;87.78
75692;BME280;64307;52.508;6.090;2023-05-10T09:47:33;101122.91;;;15.68;87.04
75692;BME280;64307;52.508;6.090;2023-05-10T09:49:59;101126.53;;;16.14;86.02
75692;BME280;64307;52.508;6.090;2023-05-10T09:52:45;101128.63;;;16.10;85.42
75692;BME280;64307;52.508;6.090;2023-05-10T09:55:10;101131.25;;;16.21;84.77
75692;BME280;64307;52.508;6.090;2023-05-10T09:57:35;101133.63;;;16.22;85.01
75692;BME280;64307;52.508;6.090;2023-05-10T10:00:01;101135.88;;;16.08;84.13
75692;BME280;64307;52.508;6.090;2023-05-10T10:02:30;101137.25;;;15.73;87.16
75692;BME280;64307;52.508;6.090;2023-05-10T10:04:56;101136.78;;;15.78;88.13
75692;BME280;64307;52.508;6.090;2023-05-10T10:07:24;101146.50;;;15.74;88.16
75692;BME280;64307;52.508;6.090;2023-05-10T10:09:52;101143.34;;;15.68;88.46
75692;BME280;64307;52.508;6.090;2023-05-10T10:12:18;101147.53;;;15.56;88.35
75692;BME280;64307;52.508;6.090;2023-05-10T10:14:46;101144.22;;;15.35;89.72
75692;BME280;64307;52.508;6.090;2023-05-10T10:17:14;101150.41;;;15.23;90.99
75692;BME280;64307;52.508;6.090;2023-05-10T10:19:40;101156.47;;;15.18;91.35
75692;BME280;64307;52.508;6.090;2023-05-10T10:22:06;101155.97;;;15.26;90.68
75692;BME280;64307;52.508;6.090;2023-05-10T10:24:31;101143.31;;;15.41;89.26
75692;BME280;64307;52.508;6.090;2023-05-10T10:27:02;101151.38;;;15.39;89.20
75692;BME280;64307;52.508;6.090;2023-05-10T10:29:41;101159.63;;;15.53;89.43
75692;BME280;64307;52.508;6.090;2023-05-10T10:32:19;101154.28;;;15.63;88.57
75692;BME280;64307;52.508;6.090;2023-05-10T10:34:46;101164.09;;;15.78;89.05
75692;BME280;64307;52.508;6.090;2023-05-10T10:37:12;101161.44;;;15.67;88.69
75692;BME280;64307;52.508;6.090;2023-05-10T10:39:37;101161.13;;;15.85;88.90
75692;BME280;64307;52.508;6.090;2023-05-10T10:42:04;101167.25;;;15.80;87.01
75692;BME280;64307;52.508;6.090;2023-05-10T10:49:27;101155.16;;;15.56;89.19
75692;BME280;64307;52.508;6.090;2023-05-10T10:52:13;101168.06;;;15.53;88.46
75692;BME280;64307;52.508;6.090;2023-05-10T10:54:40;101163.50;;;15.63;87.85
75692;BME280;64307;52.508;6.090;2023-05-10T10:57:13;101164.31;;;15.60;88.79
75692;BME280;64307;52.508;6.090;2023-05-10T10:59:43;101156.63;;;15.68;88.27
75692;BME280;64307;52.508;6.090;2023-05-10T11:08:00;101172.88;;;15.19;88.96
75692;BME280;64307;52.508;6.090;2023-05-10T11:10:32;101168.00;;;15.27;90.22
75692;BME280;64307;52.508;6.090;2023-05-10T11:13:00;101171.91;;;15.33;89.47
75692;BME280;64307;52.508;6.090;2023-05-10T11:15:37;101175.13;;;15.31;90.19
75692;BME280;64307;52.508;6.090;2023-05-10T11:18:24;101154.34;;;15.29;90.43
75692;BME280;64307;52.508;6.090;2023-05-10T11:20:59;101158.72;;;15.60;89.38
75692;BME280;64307;52.508;6.090;2023-05-10T11:23:56;101164.69;;;15.62;88.45
75692;BME280;64307;52.508;6.090;2023-05-10T11:26:23;101163.44;;;15.67;87.68
75692;BME280;64307;52.508;6.090;2023-05-10T11:28:54;101164.00;;;15.81;88.49
75692;BME280;64307;52.508;6.090;2023-05-10T11:31:20;101169.91;;;15.90;87.52
75692;BME280;64307;52.508;6.090;2023-05-10T11:34:00;101172.13;;;15.76;87.71
75692;BME280;64307;52.508;6.090;2023-05-10T11:36:28;101174.19;;;15.98;87.25
75692;BME280;64307;52.508;6.090;2023-05-10T11:38:55;101169.97;;;16.10;86.90
75692;BME280;64307;52.508;6.090;2023-05-10T11:41:22;101177.72;;;16.02;86.50
75692;BME280;64307;52.508;6.090;2023-05-10T11:43:52;101179.00;;;15.98;84.60
75692;BME280;64307;52.508;6.090;2023-05-10T11:46:21;101183.44;;;15.95;85.79
75692;BME280;64307;52.508;6.090;2023-05-10T11:48:52;101177.91;;;15.92;85.45
75692;BME280;64307;52.508;6.090;2023-05-10T11:51:22;101183.09;;;15.93;87.11
75692;BME280;64307;52.508;6.090;2023-05-10T11:53:50;101178.06;;;15.81;87.47
75692;BME280;64307;52.508;6.090;2023-05-10T11:56:16;101179.38;;;15.46;90.14
75692;BME280;64307;52.508;6.090;2023-05-10T11:58:42;101175.09;;;15.65;90.44
75692;BME280;64307;52.508;6.090;2023-05-10T12:01:08;101183.72;;;15.51;91.67
75692;BME280;64307;52.508;6.090;2023-05-10T12:03:35;101188.66;;;15.40;91.72
75692;BME280;64307;52.508;6.090;2023-05-10T12:06:01;101187.47;;;15.37;91.42
75692;BME280;64307;52.508;6.090;2023-05-10T12:08:29;101181.31;;;15.19;92.04
75692;BME280;64307;52.508;6.090;2023-05-10T12:11:05;101194.41;;;15.29;93.07
75692;BME280;64307;52.508;6.090;2023-05-10T12:13:31;101188.09;;;15.22;95.21
75692;BME280;64307;52.508;6.090;2023-05-10T12:15:59;101188.09;;;15.22;94.09
75692;BME280;64307;52.508;6.090;2023-05-10T12:18:25;101191.34;;;15.17;95.00
75692;BME280;64307;52.508;6.090;2023-05-10T12:20:54;101195.19;;;15.30;92.91
75692;BME280;64307;52.508;6.090;2023-05-10T12:23:19;101193.47;;;15.39;92.32
75692;BME280;64307;52.508;6.090;2023-05-10T12:25:45;101193.78;;;15.48;93.19
75692;BME280;64307;52.508;6.090;2023-05-10T12:28:10;101187.47;;;15.37;91.79
75692;BME280;64307;52.508;6.090;2023-05-10T12:30:38;101200.19;;;15.49;92.24
75692;BME280;64307;52.508;6.090;2023-05-10T12:33:09;101206.63;;;15.49;92.59
75692;BME280;64307;52.508;6.090;2023-05-10T12:35:49;101202.16;;;15.52;92.31
75692;BME280;64307;52.508;6.090;2023-05-10T12:40:50;101203.09;;;15.72;89.64
75692;BME280;64307;52.508;6.090;2023-05-10T12:43:15;101194.44;;;15.86;89.72
75692;BME280;64307;52.508;6.090;2023-05-10T12:45:40;101194.66;;;15.72;89.57
75692;BME280;64307;52.508;6.090;2023-05-10T12:48:06;101199.31;;;15.82;88.29
75692;BME280;64307;52.508;6.090;2023-05-10T12:50:31;101205.75;;;16.06;87.51
75692;BME280;64307;52.508;6.090;2023-05-10T12:52:56;101204.28;;;15.98;86.93
75692;BME280;64307;52.508;6.090;2023-05-10T12:55:22;101206.44;;;15.87;87.07
75692;BME280;64307;52.508;6.090;2023-05-10T12:57:48;101201.31;;;16.08;86.32
75692;BME280;64307;52.508;6.090;2023-05-10T13:00:14;101208.34;;;16.20;85.47
75692;BME280;64307;52.508;6.090;2023-05-10T13:02:39;101200.31;;;15.95;86.15
75692;BME280;64307;52.508;6.090;2023-05-10T13:05:05;101215.09;;;15.99;85.75
75692;BME280;64307;52.508;6.090;2023-05-10T13:07:30;101202.84;;;16.13;85.29
75692;BME280;64307;52.508;6.090;2023-05-10T13:09:57;101214.31;;;16.22;84.38